Time;durP1;ratioP1;P1;durP2;ratioP2;P2;SDS_P1;SDS_P2;PMS_P1;PMS_P2;Temp;Humidity;BMP_temperature;BMP_pressure;BME280_temperature;BME280_humidity;BME280_pressure;Samples;Min_cycle;Max_cycle;Signal;HPM_P1;HPM_P2
2021/11/14 00:02:10;;;;;;;;;;;;;;;6.83;91.46;96351.41;5074295;28;19960;-73
2021/11/14 00:04:36;;;;;;;;;;;;;;;6.83;91.56;96354.00;5074446;28;20352;-73
2021/11/14 00:07:02;;;;;;;;;;;;;;;6.83;91.48;96353.22;5074067;28;19973;-73
2021/11/14 00:09:29;;;;;;;;;;;;;;;6.84;91.53;96357.41;5072968;28;19950;-73
2021/11/14 00:11:56;;;;;;;;;;;;;;;6.83;91.61;96345.41;5073902;28;19973;-73
2021/11/14 00:14:22;;;;;;;;;;;;;;;6.84;91.71;96349.59;5074128;28;19968;-73
2021/11/14 00:16:48;;;;;;;;;;;;;;;6.85;91.72;96353.81;5073889;28;20415;-73
2021/11/14 00:19:14;;;;;;;;;;;;;;;6.82;91.83;96347.19;5074213;28;19948;-73
2021/11/14 00:21:41;;;;;;;;;;;;;;;6.83;91.89;96353.22;5073993;28;19947;-73
2021/11/14 00:24:11;;;;;;;;;;;;;;;6.81;91.83;96344.78;5073988;28;19953;-75
2021/11/14 00:26:37;;;;;;;;;;;;;;;6.82;91.86;96355.00;5073930;28;19970;-74
2021/11/14 00:29:04;;;;;;;;;;;;;;;6.80;92.02;96349.19;5073454;28;19958;-74
2021/11/14 00:31:30;;;;;;;;;;;;;;;6.81;91.75;96350.00;5072444;28;19954;-74
2021/11/14 00:33:57;;;;;;;;;;;;;;;6.81;91.81;96345.59;5073737;28;19963;-74
2021/11/14 00:36:24;;;;;;;;;;;;;;;6.82;91.86;96341.16;5073806;28;19956;-75
2021/11/14 00:38:51;;;;;;;;;;;;;;;6.81;91.87;96342.97;5073633;28;19952;-75
2021/11/14 00:41:18;;;;;;;;;;;;;;;6.81;91.93;96345.59;5073738;28;19952;-74
2021/11/14 00:43:44;;;;;;;;;;;;;;;6.81;91.93;96342.97;5072319;28;19957;-75
2021/11/14 00:46:10;;;;;;;;;;;;;;;6.82;91.96;96341.16;5074053;28;20060;-74
2021/11/14 00:48:41;;;;;;;;;;;;;;;6.81;92.02;96342.97;5073594;28;19951;-75
2021/11/14 00:51:12;;;;;;;;;;;;;;;6.81;92.14;96335.16;5073796;28;19962;-74
2021/11/14 00:53:38;;;;;;;;;;;;;;;6.82;92.03;96343.78;5073313;28;19949;-75
2021/11/14 00:56:04;;;;;;;;;;;;;;;6.80;92.26;96353.59;5074009;28;20006;-74
2021/11/14 00:58:30;;;;;;;;;;;;;;;6.80;92.33;96350.97;5073566;28;19953;-74
2021/11/14 01:00:57;;;;;;;;;;;;;;;6.80;92.34;96346.56;5073768;28;20051;-74
2021/11/14 01:03:23;;;;;;;;;;;;;;;6.81;92.44;96347.41;5073666;28;19963;-74
2021/11/14 01:05:49;;;;;;;;;;;;;;;6.81;92.46;96355.22;5073254;28;20443;-75
2021/11/14 01:08:15;;;;;;;;;;;;;;;6.80;92.38;96350.97;5073638;28;19957;-75
2021/11/14 01:10:43;;;;;;;;;;;;;;;6.81;92.53;96352.59;5071978;28;19963;-74
2021/11/14 01:13:09;;;;;;;;;;;;;;;6.81;92.24;96352.59;5073481;28;20323;-74
2021/11/14 01:15:38;;;;;;;;;;;;;;;6.80;92.37;96349.19;5073434;28;19977;-75
2021/11/14 01:18:05;;;;;;;;;;;;;;;6.80;92.65;96351.78;5073396;28;19970;-74
2021/11/14 01:20:33;;;;;;;;;;;;;;;6.81;92.56;96355.22;5073181;28;19961;-74
2021/11/14 01:23:02;;;;;;;;;;;;;;;6.80;92.75;96358.81;5072096;28;19978;-75
2021/11/14 01:25:28;;;;;;;;;;;;;;;6.80;92.73;96357.00;5073261;28;19948;-74
2021/11/14 01:27:54;;;;;;;;;;;;;;;6.80;92.87;96359.59;5073122;28;19967;-74
2021/11/14 01:30:24;;;;;;;;;;;;;;;6.81;92.82;96368.25;5073330;28;19961;-74
2021/11/14 01:32:52;;;;;;;;;;;;;;;6.83;93.13;96368.84;5073156;28;19959;-74
2021/11/14 01:35:18;;;;;;;;;;;;;;;6.81;93.14;96371.66;5073252;28;19957;-74
2021/11/14 01:37:46;;;;;;;;;;;;;;;6.83;93.31;96371.47;5073055;28;20418;-74
2021/11/14 01:40:14;;;;;;;;;;;;;;;6.82;93.41;96368.03;5073122;28;19964;-75
2021/11/14 01:42:40;;;;;;;;;;;;;;;6.82;93.41;96381.06;5076840;28;19964;-74
2021/11/14 01:45:08;;;;;;;;;;;;;;;6.82;93.55;96373.25;5076966;28;19983;-74
2021/11/14 01:47:34;;;;;;;;;;;;;;;6.81;93.79;96374.25;5076721;28;19973;-74
2021/11/14 01:50:00;;;;;;;;;;;;;;;6.80;93.80;96377.03;5076560;28;20022;-74
2021/11/14 01:52:28;;;;;;;;;;;;;;;6.81;93.76;96376.88;5076728;28;19958;-74
2021/11/14 01:54:54;;;;;;;;;;;;;;;6.80;93.92;96372.63;5077170;28;19983;-74
2021/11/14 01:57:20;;;;;;;;;;;;;;;6.81;94.10;96371.66;5076767;28;19972;-74
2021/11/14 01:59:46;;;;;;;;;;;;;;;6.81;93.98;96368.25;5075884;28;19962;-74
2021/11/14 02:02:13;;;;;;;;;;;;;;;6.80;94.28;96374.44;5075347;28;19957;-74
2021/11/14 02:04:40;;;;;;;;;;;;;;;6.77;94.40;96370.44;5076791;28;19954;-74
2021/11/14 02:07:07;;;;;;;;;;;;;;;6.75;94.07;96369.81;5076417;28;19978;-74
2021/11/14 02:09:34;;;;;;;;;;;;;;;6.73;94.78;96371.03;5076516;28;19964;-74
2021/11/14 02:12:01;;;;;;;;;;;;;;;6.72;94.89;96367.63;5076441;28;19960;-74
2021/11/14 02:14:27;;;;;;;;;;;;;;;6.71;95.23;96374.59;5076491;28;19953;-74
2021/11/14 02:16:53;;;;;;;;;;;;;;;6.69;95.59;96373.22;5076204;28;19978;-74
2021/11/14 02:19:19;;;;;;;;;;;;;;;6.65;95.61;96367.56;5076518;28;19988;-74
2021/11/14 02:21:45;;;;;;;;;;;;;;;6.66;95.52;96363.97;5076131;28;20405;-73
2021/11/14 02:24:11;;;;;;;;;;;;;;;6.68;95.50;96366.41;5076247;28;20026;-74
2021/11/14 02:26:36;;;;;;;;;;;;;;;6.68;95.45;96361.19;5076012;28;19974;-74
2021/11/14 02:29:02;;;;;;;;;;;;;;;6.69;95.31;96365.38;5076133;28;20344;-74
2021/11/14 02:31:29;;;;;;;;;;;;;;;6.71;95.20;96363.38;5075856;28;19958;-74
2021/11/14 02:33:56;;;;;;;;;;;;;;;6.73;95.28;96358.00;5076058;28;19968;-74
2021/11/14 02:36:23;;;;;;;;;;;;;;;6.75;95.10;96366.41;5076076;28;20339;-74
2021/11/14 02:38:49;;;;;;;;;;;;;;;6.77;94.91;96364.41;5075727;28;19963;-74
2021/11/14 02:41:15;;;;;;;;;;;;;;;6.78;94.72;96363.41;5075804;28;19963;-74
2021/11/14 02:43:41;;;;;;;;;;;;;;;6.79;94.77;96360.63;5075826;28;20038;-74
2021/11/14 02:46:07;;;;;;;;;;;;;;;6.80;94.68;96357.00;5075780;28;19964;-74
2021/11/14 02:48:33;;;;;;;;;;;;;;;6.81;94.75;96363.03;5075662;28;19964;-74
2021/11/14 02:51:00;;;;;;;;;;;;;;;6.81;94.76;96366.44;5075827;28;20373;-74
2021/11/14 02:53:26;;;;;;;;;;;;;;;6.82;94.61;96364.63;5075147;28;19965;-74
2021/11/14 02:55:52;;;;;;;;;;;;;;;6.81;94.53;96363.81;5075497;28;19990;-74
2021/11/14 02:58:19;;;;;;;;;;;;;;;6.83;94.46;96366.25;5075481;28;19956;-74
2021/11/14 03:00:49;;;;;;;;;;;;;;;6.83;94.70;96359.22;5075418;28;19961;-74
2021/11/14 03:03:14;;;;;;;;;;;;;;;6.83;94.67;96361.03;5075299;28;19956;-76
2021/11/14 03:05:41;;;;;;;;;;;;;;;6.82;94.44;96364.63;5075477;28;20069;-74
2021/11/14 03:08:07;;;;;;;;;;;;;;;6.83;94.53;96358.44;5075225;28;19972;-74
2021/11/14 03:10:34;;;;;;;;;;;;;;;6.82;94.35;96370.63;5075223;28;19961;-74
2021/11/14 03:13:00;;;;;;;;;;;;;;;6.83;94.44;96361.03;5075265;28;19960;-74
2021/11/14 03:15:27;;;;;;;;;;;;;;;6.84;94.38;96362.63;5075425;28;19951;-74
2021/11/14 03:17:53;;;;;;;;;;;;;;;6.83;94.40;96359.22;5074799;28;19974;-74
2021/11/14 03:20:19;;;;;;;;;;;;;;;6.82;94.16;96369.84;5075055;28;20372;-74
2021/11/14 03:22:45;;;;;;;;;;;;;;;6.81;94.07;96374.25;5075043;28;19962;-74
2021/11/14 03:25:11;;;;;;;;;;;;;;;6.80;94.12;96374.44;5075076;28;19985;-74
2021/11/14 03:27:36;;;;;;;;;;;;;;;6.78;94.00;96369.41;5074828;28;19975;-74
2021/11/14 03:30:04;;;;;;;;;;;;;;;6.78;93.85;96366.00;5074746;28;19961;-74
2021/11/14 03:32:30;;;;;;;;;;;;;;;6.77;93.67;96364.41;5075096;28;19954;-74
2021/11/14 03:34:56;;;;;;;;;;;;;;;6.75;93.42;96366.41;5074716;28;20076;-74
2021/11/14 03:37:22;;;;;;;;;;;;;;;6.71;93.12;96364.19;5074792;28;19994;-74
2021/11/14 03:39:48;;;;;;;;;;;;;;;6.71;92.70;96368.59;5074579;28;19963;-74
2021/11/14 03:42:14;;;;;;;;;;;;;;;6.68;92.43;96379.44;5074771;28;19954;-74
2021/11/14 03:44:40;;;;;;;;;;;;;;;6.65;92.23;96379.81;5074775;28;19960;-74
2021/11/14 03:47:07;;;;;;;;;;;;;;;6.63;91.98;96379.19;5074562;28;20310;-74
2021/11/14 03:49:33;;;;;;;;;;;;;;;6.60;91.92;96382.19;5074335;28;19969;-74
2021/11/14 03:52:00;;;;;;;;;;;;;;;6.56;91.90;96373.97;5074546;28;19959;-74
2021/11/14 03:54:26;;;;;;;;;;;;;;;6.55;91.90;96384.56;5074346;28;19980;-75
2021/11/14 03:56:52;;;;;;;;;;;;;;;6.53;92.00;96381.34;5074466;28;19961;-75
2021/11/14 03:59:18;;;;;;;;;;;;;;;6.53;92.15;96381.34;5074281;28;20026;-74
2021/11/14 04:01:44;;;;;;;;;;;;;;;6.52;92.17;96387.56;5074432;28;19963;-74
2021/11/14 04:04:10;;;;;;;;;;;;;;;6.53;92.33;96389.16;5073372;28;19953;-75
2021/11/14 04:06:36;;;;;;;;;;;;;;;6.52;92.66;96392.78;5074039;28;19982;-75
2021/11/14 04:09:02;;;;;;;;;;;;;;;6.52;92.52;96387.56;5074209;28;20455;-74
2021/11/14 04:11:28;;;;;;;;;;;;;;;6.50;92.50;96385.16;5074181;28;19957;-74
2021/11/14 04:13:55;;;;;;;;;;;;;;;6.48;92.28;96384.53;5073977;28;20340;-75
2021/11/14 04:16:21;;;;;;;;;;;;;;;6.47;92.36;96385.56;5074352;28;19951;-74
2021/11/14 04:18:47;;;;;;;;;;;;;;;6.44;92.51;96381.50;5072593;28;19959;-74
2021/11/14 04:21:13;;;;;;;;;;;;;;;6.42;92.37;96386.09;5074098;28;19955;-74
2021/11/14 04:23:39;;;;;;;;;;;;;;;6.42;92.35;96393.13;5073848;28;20404;-74
2021/11/14 04:26:06;;;;;;;;;;;;;;;6.40;92.52;96390.69;5073949;28;19959;-75
2021/11/14 04:28:33;;;;;;;;;;;;;;;6.40;92.62;96388.09;5073852;28;19962;-74
2021/11/14 04:30:59;;;;;;;;;;;;;;;6.39;92.56;96393.53;5073729;28;19970;-74
2021/11/14 04:33:25;;;;;;;;;;;;;;;6.39;92.81;96394.31;5073861;28;19962;-74
2021/11/14 04:35:51;;;;;;;;;;;;;;;6.39;92.94;96396.94;5073685;28;20446;-75
2021/11/14 04:38:17;;;;;;;;;;;;;;;6.39;92.94;96406.53;5073810;28;19957;-75
2021/11/14 04:40:43;;;;;;;;;;;;;;;6.38;93.08;96407.53;5073986;28;20417;-74
2021/11/14 04:43:11;;;;;;;;;;;;;;;6.39;93.02;96411.75;5073906;28;20439;-74
2021/11/14 04:45:37;;;;;;;;;;;;;;;6.34;93.61;96411.50;5073730;28;19963;-74
2021/11/14 04:48:04;;;;;;;;;;;;;;;6.30;93.79;96414.50;5073567;28;19977;-74
2021/11/14 04:50:30;;;;;;;;;;;;;;;6.33;93.97;96415.13;5073650;28;19957;-75
2021/11/14 04:52:56;;;;;;;;;;;;;;;6.33;93.94;96415.91;5072381;28;19955;-75
2021/11/14 04:55:22;;;;;;;;;;;;;;;6.36;94.06;96420.72;5073636;28;20006;-75
2021/11/14 04:57:51;;;;;;;;;;;;;;;6.38;94.04;96425.75;5073671;28;19968;-75
2021/11/14 05:00:19;;;;;;;;;;;;;;;6.38;94.17;96416.13;5073541;28;19955;-75
2021/11/14 05:02:45;;;;;;;;;;;;;;;6.39;94.14;96416.97;5073450;28;19971;-75
2021/11/14 05:05:11;;;;;;;;;;;;;;;6.40;94.49;96419.34;5073618;28;19990;-74
2021/11/14 05:07:37;;;;;;;;;;;;;;;6.40;94.70;96414.16;5073202;28;20009;-75
2021/11/14 05:10:04;;;;;;;;;;;;;;;6.42;94.87;96427.78;5073484;28;19951;-74
2021/11/14 05:12:29;;;;;;;;;;;;;;;6.43;94.63;96424.19;5073242;28;19967;-74
2021/11/14 05:14:55;;;;;;;;;;;;;;;6.43;94.60;96421.59;5073220;28;19961;-74
2021/11/14 05:17:21;;;;;;;;;;;;;;;6.46;94.64;96425.59;5077642;28;19997;-74
2021/11/14 05:19:47;;;;;;;;;;;;;;;6.46;94.77;96426.41;5077347;28;20022;-75
2021/11/14 05:22:13;;;;;;;;;;;;;;;6.47;94.93;96422.81;5077463;28;19959;-75
2021/11/14 05:24:39;;;;;;;;;;;;;;;6.48;95.00;96426.22;5077534;28;19965;-74
2021/11/14 05:27:05;;;;;;;;;;;;;;;6.47;95.21;96425.41;5077473;28;19989;-74
2021/11/14 05:29:31;;;;;;;;;;;;;;;6.47;95.50;96425.41;5077512;28;19979;-74
2021/11/14 05:31:57;;;;;;;;;;;;;;;6.46;95.60;96430.81;5075891;28;19954;-74
2021/11/14 05:34:23;;;;;;;;;;;;;;;6.45;95.97;96437.03;5077230;28;20446;-75
2021/11/14 05:36:48;;;;;;;;;;;;;;;6.44;95.55;96431.00;5077172;28;20072;-74
2021/11/14 05:39:14;;;;;;;;;;;;;;;6.44;95.87;96436.22;5076939;28;20422;-75
2021/11/14 05:41:40;;;;;;;;;;;;;;;6.44;96.39;96438.81;5077214;28;19959;-75
2021/11/14 05:44:07;;;;;;;;;;;;;;;6.43;96.32;96433.81;5077127;28;19960;-74
2021/11/14 05:46:34;;;;;;;;;;;;;;;6.45;96.63;96443.03;5076787;28;19953;-75
2021/11/14 05:49:00;;;;;;;;;;;;;;;6.45;96.76;96445.66;5076902;28;20409;-75
2021/11/14 05:51:26;;;;;;;;;;;;;;;6.45;96.92;96452.66;5076935;28;19956;-75
2021/11/14 05:53:52;;;;;;;;;;;;;;;6.46;96.85;96452.47;5076406;28;20036;-75
2021/11/14 05:56:18;;;;;;;;;;;;;;;6.48;97.17;96450.47;5076577;28;19969;-75
2021/11/14 05:58:49;;;;;;;;;;;;;;;6.46;96.45;96455.06;5076944;28;19959;-74
2021/11/14 06:01:30;;;;;;;;;;;;;;;6.45;96.43;96455.28;5076728;28;20419;-75
2021/11/14 06:04:02;;;;;;;;;;;;;;;6.42;96.90;96466.06;5076690;28;19960;-75
2021/11/14 06:06:28;;;;;;;;;;;;;;;6.41;96.86;96454.03;5076527;28;19971;-75
2021/11/14 06:08:54;;;;;;;;;;;;;;;6.43;96.69;96470.28;5076563;28;19980;-74
2021/11/14 06:11:22;;;;;;;;;;;;;;;6.44;96.76;96462.25;5076507;28;20425;-75
2021/11/14 06:13:49;;;;;;;;;;;;;;;6.46;96.60;96475.09;5064547;28;19948;-74
2021/11/14 06:16:14;;;;;;;;;;;;;;;6.47;96.37;96472.31;5058382;28;20361;-75
2021/11/14 06:18:40;;;;;;;;;;;;;;;6.46;96.17;96478.50;5076149;28;19955;-74
2021/11/14 06:21:06;;;;;;;;;;;;;;;6.46;96.09;96475.09;5076292;28;19953;-74
2021/11/14 06:23:32;;;;;;;;;;;;;;;6.46;95.97;96475.91;5076231;28;20047;-74
2021/11/14 06:25:58;;;;;;;;;;;;;;;6.48;96.08;96481.72;5075846;28;19949;-75
2021/11/14 06:28:24;;;;;;;;;;;;;;;6.49;96.37;96485.97;5075421;28;19961;-74
2021/11/14 06:30:50;;;;;;;;;;;;;;;6.49;96.45;96488.56;5075956;28;20423;-75
2021/11/14 06:33:16;;;;;;;;;;;;;;;6.48;96.46;96486.13;5076298;28;20331;-75
2021/11/14 06:35:42;;;;;;;;;;;;;;;6.49;96.41;96485.97;5075742;28;19968;-74
2021/11/14 06:38:08;;;;;;;;;;;;;;;6.52;96.41;96489.97;5076090;28;19967;-74
2021/11/14 06:40:34;;;;;;;;;;;;;;;6.54;96.33;96492.41;5075800;28;20009;-74
2021/11/14 06:43:00;;;;;;;;;;;;;;;6.54;96.29;96495.78;5075795;28;19950;-74
2021/11/14 06:45:26;;;;;;;;;;;;;;;6.57;96.08;96497.22;5075698;28;19950;-75
2021/11/14 06:47:52;;;;;;;;;;;;;;;6.56;96.13;96493.81;5075555;28;19965;-75
2021/11/14 06:50:18;;;;;;;;;;;;;;;6.59;96.19;96500.44;5075818;28;19966;-75
2021/11/14 06:52:45;;;;;;;;;;;;;;;6.60;95.93;96502.84;5075462;28;19965;-75
2021/11/14 06:55:12;;;;;;;;;;;;;;;6.62;96.07;96506.06;5075587;28;19991;-75
2021/11/14 06:57:38;;;;;;;;;;;;;;;6.62;96.56;96508.69;5075853;28;19964;-75
2021/11/14 07:00:09;;;;;;;;;;;;;;;6.63;96.50;96502.47;5075664;28;19963;-74
2021/11/14 07:02:35;;;;;;;;;;;;;;;6.65;96.69;96504.88;5075734;28;19952;-75
2021/11/14 07:05:01;;;;;;;;;;;;;;;6.67;96.69;96506.28;5075452;28;19959;-74
2021/11/14 07:07:27;;;;;;;;;;;;;;;6.69;96.72;96509.50;5075833;28;20383;-74
2021/11/14 07:09:53;;;;;;;;;;;;;;;6.74;96.51;96514.19;5074108;28;20023;-74
2021/11/14 07:12:21;;;;;;;;;;;;;;;6.79;96.75;96516.19;5075489;28;19955;-74
2021/11/14 07:14:46;;;;;;;;;;;;;;;6.83;96.83;96522.66;5075057;28;20276;-75
2021/11/14 07:17:15;;;;;;;;;;;;;;;6.86;96.56;96523.03;5075492;28;19949;-75
2021/11/14 07:19:41;;;;;;;;;;;;;;;6.89;96.45;96519.28;5073930;28;20321;-74
2021/11/14 07:22:07;;;;;;;;;;;;;;;6.90;96.42;96520.88;5075270;28;20362;-74
2021/11/14 07:24:33;;;;;;;;;;;;;;;6.90;96.40;96531.28;5074958;28;20388;-74
2021/11/14 07:26:59;;;;;;;;;;;;;;;6.87;96.14;96531.69;5075035;28;19953;-74
2021/11/14 07:29:25;;;;;;;;;;;;;;;6.84;95.83;96532.84;5074910;28;20415;-75
2021/11/14 07:31:51;;;;;;;;;;;;;;;6.83;95.75;96533.06;5075425;28;19959;-74
2021/11/14 07:34:17;;;;;;;;;;;;;;;6.81;95.59;96537.66;5075193;28;19956;-74
2021/11/14 07:36:43;;;;;;;;;;;;;;;6.80;95.94;96543.88;5074739;28;19986;-75
2021/11/14 07:39:09;;;;;;;;;;;;;;;6.78;96.43;96544.03;5074604;28;19962;-75
2021/11/14 07:41:35;;;;;;;;;;;;;;;6.78;97.23;96545.84;5074775;28;19959;-75
2021/11/14 07:44:01;;;;;;;;;;;;;;;6.78;97.26;96544.03;5074617;28;19964;-75
2021/11/14 07:46:26;;;;;;;;;;;;;;;6.82;97.39;96544.47;5074689;28;20009;-74
2021/11/14 07:48:53;;;;;;;;;;;;;;;6.88;97.20;96547.13;5074696;28;19969;-74
2021/11/14 07:51:19;;;;;;;;;;;;;;;6.89;96.56;96543.53;5074786;28;19949;-74
2021/11/14 07:53:45;;;;;;;;;;;;;;;6.91;97.21;96548.56;5074392;28;19997;-75
2021/11/14 07:56:11;;;;;;;;;;;;;;;6.95;97.38;96548.97;5074603;28;20535;-75
2021/11/14 07:58:37;;;;;;;;;;;;;;;6.97;97.12;96553.00;5074241;28;20069;-75
2021/11/14 08:01:03;;;;;;;;;;;;;;;7.03;96.48;96549.59;5074426;28;20003;-74
2021/11/14 08:03:32;;;;;;;;;;;;;;;7.13;96.34;96554.47;5074386;28;19953;-74
2021/11/14 08:05:59;;;;;;;;;;;;;;;7.23;96.49;96554.13;5074328;28;20334;-74
2021/11/14 08:08:25;;;;;;;;;;;;;;;7.32;96.11;96553.75;5074059;28;19990;-75
2021/11/14 08:10:51;;;;;;;;;;;;;;;7.45;95.85;96555.59;5074220;28;20397;-75
2021/11/14 08:13:16;;;;;;;;;;;;;;;7.84;95.44;96546.31;5074115;28;19956;-74
2021/11/14 08:15:42;;;;;;;;;;;;;;;8.34;93.71;96540.75;5073812;28;19953;-75
2021/11/14 08:18:09;;;;;;;;;;;;;;;8.78;91.66;96539.31;5074140;28;20474;-74
2021/11/14 08:20:36;;;;;;;;;;;;;;;9.10;89.71;96542.06;5073946;28;19961;-74
2021/11/14 08:23:05;;;;;;;;;;;;;;;9.10;88.62;96550.72;5074024;28;20437;-74
2021/11/14 08:25:32;;;;;;;;;;;;;;;8.88;87.69;96546.72;5073914;28;19968;-74
2021/11/14 08:27:58;;;;;;;;;;;;;;;8.74;88.68;96541.53;5073748;28;20335;-74
2021/11/14 08:30:24;;;;;;;;;;;;;;;8.63;88.89;96546.56;5073976;28;19962;-74
2021/11/14 08:32:51;;;;;;;;;;;;;;;8.55;89.56;96545.00;5073735;28;20393;-75
2021/11/14 08:35:18;;;;;;;;;;;;;;;8.45;89.56;96550.59;5073751;28;19967;-74
2021/11/14 08:37:44;;;;;;;;;;;;;;;8.28;89.78;96549.38;5073666;28;19973;-75
2021/11/14 08:40:11;;;;;;;;;;;;;;;8.11;90.18;96562.03;5073832;28;20410;-74
2021/11/14 08:42:37;;;;;;;;;;;;;;;7.97;90.43;96558.56;5073540;28;19948;-74
2021/11/14 08:45:04;;;;;;;;;;;;;;;7.89;91.65;96556.16;5073797;28;19958;-74
2021/11/14 08:47:30;;;;;;;;;;;;;;;7.87;91.38;96576.44;5073367;28;19969;-74
2021/11/14 08:49:56;;;;;;;;;;;;;;;7.98;91.78;96567.22;5073315;28;19976;-74
2021/11/14 08:52:22;;;;;;;;;;;;;;;8.21;92.19;96567.66;5073652;28;20392;-74
2021/11/14 08:54:48;;;;;;;;;;;;;;;8.25;89.51;96583.72;5073075;28;19991;-74
2021/11/14 08:57:17;;;;;;;;;;;;;;;8.21;89.32;96580.72;5074223;28;19958;-74
2021/11/14 08:59:47;;;;;;;;;;;;;;;8.09;90.21;96584.94;5073519;28;19956;-75
2021/11/14 09:02:13;;;;;;;;;;;;;;;8.04;91.69;96582.09;5073596;28;19962;-74
2021/11/14 09:04:39;;;;;;;;;;;;;;;8.03;91.48;96583.09;5073490;28;19959;-74
2021/11/14 09:07:06;;;;;;;;;;;;;;;8.00;92.19;96581.69;5073232;28;19968;-75
2021/11/14 09:09:32;;;;;;;;;;;;;;;8.01;91.95;96588.50;5073375;28;19973;-74
2021/11/14 09:11:58;;;;;;;;;;;;;;;7.96;90.65;96590.09;5073237;28;19958;-75
2021/11/14 09:14:24;;;;;;;;;;;;;;;7.91;90.85;96591.50;5073147;28;19958;-74
2021/11/14 09:16:51;;;;;;;;;;;;;;;7.89;91.63;96595.31;5073527;28;19960;-74
2021/11/14 09:19:17;;;;;;;;;;;;;;;7.89;91.11;96598.72;5073325;28;19956;-74
2021/11/14 09:21:43;;;;;;;;;;;;;;;7.85;90.11;96600.16;5073246;28;19957;-75
2021/11/14 09:24:09;;;;;;;;;;;;;;;7.83;91.45;96598.72;5073593;28;19965;-74
2021/11/14 09:26:37;;;;;;;;;;;;;;;7.80;91.55;96606.94;5073411;28;19950;-74
2021/11/14 09:29:03;;;;;;;;;;;;;;;7.76;91.78;96603.91;5073331;28;19967;-74
2021/11/14 09:31:29;;;;;;;;;;;;;;;7.69;91.86;96610.94;5073180;28;19957;-74
2021/11/14 09:33:57;;;;;;;;;;;;;;;7.59;92.55;96610.47;5073839;28;19961;-74
2021/11/14 09:36:24;;;;;;;;;;;;;;;7.57;92.39;96613.28;5073099;28;19966;-75
2021/11/14 09:38:51;;;;;;;;;;;;;;;7.56;92.91;96610.84;5073207;28;19957;-75
2021/11/14 09:41:18;;;;;;;;;;;;;;;7.57;92.66;96608.06;5073644;28;20319;-76
2021/11/14 09:43:43;;;;;;;;;;;;;;;7.52;92.64;96619.09;5072957;28;19955;-75
2021/11/14 09:46:09;;;;;;;;;;;;;;;7.53;92.78;96620.69;5073074;28;19960;-74
2021/11/14 09:48:35;;;;;;;;;;;;;;;7.54;93.37;96616.28;5071684;28;20342;-75
2021/11/14 09:51:01;;;;;;;;;;;;;;;7.55;94.19;96620.50;5071931;28;19998;-74
2021/11/14 09:53:29;;;;;;;;;;;;;;;7.58;94.07;96627.97;5072784;28;19959;-75
2021/11/14 09:55:56;;;;;;;;;;;;;;;7.57;92.72;96622.91;5073050;28;19969;-74
2021/11/14 09:58:23;;;;;;;;;;;;;;;7.59;93.59;96626.16;5072835;28;19969;-75
2021/11/14 10:00:49;;;;;;;;;;;;;;;7.63;93.83;96632.59;5073261;28;19966;-74
2021/11/14 10:03:15;;;;;;;;;;;;;;;7.66;93.84;96625.16;5076171;28;19983;-75
2021/11/14 10:05:41;;;;;;;;;;;;;;;7.63;92.81;96630.78;5076394;28;19955;-74
2021/11/14 10:08:08;;;;;;;;;;;;;;;7.60;93.36;96633.78;5076616;28;20018;-76
2021/11/14 10:10:37;;;;;;;;;;;;;;;7.61;93.03;96640.59;5075246;28;19957;-74
2021/11/14 10:13:13;;;;;;;;;;;;;;;7.64;93.38;96642.00;5076423;28;20438;-74
2021/11/14 10:15:40;;;;;;;;;;;;;;;7.67;92.58;96641.63;5076288;28;19948;-74
2021/11/14 10:18:06;;;;;;;;;;;;;;;7.67;92.26;96644.25;5076417;28;19950;-75
2021/11/14 10:20:36;;;;;;;;;;;;;;;7.69;93.21;96639.66;5076435;28;20439;-75
2021/11/14 10:23:15;;;;;;;;;;;;;;;7.67;91.32;96637.22;5076487;28;19961;-74
2021/11/14 10:25:42;;;;;;;;;;;;;;;7.62;91.82;96642.22;5060084;28;20407;-74
2021/11/14 10:28:09;;;;;;;;;;;;;;;7.61;92.57;96640.59;5076233;28;19977;-74
2021/11/14 10:30:39;;;;;;;;;;;;;;;7.66;93.44;96640.81;5075994;28;19969;-75
2021/11/14 10:33:07;;;;;;;;;;;;;;;7.71;92.06;96641.06;5075636;28;19963;-75
2021/11/14 10:35:34;;;;;;;;;;;;;;;7.78;92.78;96637.66;5076029;28;19957;-74
2021/11/14 10:38:02;;;;;;;;;;;;;;;7.84;92.47;96639.50;5075736;28;19952;-74
2021/11/14 10:40:31;;;;;;;;;;;;;;;7.88;92.53;96638.09;5075853;28;19961;-74
2021/11/14 10:42:58;;;;;;;;;;;;;;;7.93;92.64;96644.34;5075876;28;19956;-74
2021/11/14 10:45:28;;;;;;;;;;;;;;;8.04;93.25;96639.53;5075647;28;20311;-74
2021/11/14 10:48:02;;;;;;;;;;;;;;;8.23;93.68;96638.81;5075591;28;19955;-75
2021/11/14 10:50:31;;;;;;;;;;;;;;;8.46;94.57;96638.47;5063434;28;19960;-74
2021/11/14 10:52:58;;;;;;;;;;;;;;;8.65;91.37;96628.22;5075336;28;19963;-74
2021/11/14 10:55:25;;;;;;;;;;;;;;;8.70;90.88;96631.03;5075554;28;20352;-74
2021/11/14 10:57:51;;;;;;;;;;;;;;;8.68;90.25;96628.63;5075469;28;20012;-75
2021/11/14 11:00:19;;;;;;;;;;;;;;;8.65;90.15;96628.22;5075516;28;19964;-74
2021/11/14 11:02:46;;;;;;;;;;;;;;;8.62;90.54;96632.03;5075245;28;19985;-75
2021/11/14 11:05:22;;;;;;;;;;;;;;;8.57;90.06;96633.63;5075465;28;19970;-74
2021/11/14 11:08:11;;;;;;;;;;;;;;;8.51;90.39;96630.03;5075344;28;19962;-75
2021/11/14 11:10:41;;;;;;;;;;;;;;;8.47;90.25;96634.06;5072211;28;20407;-75
2021/11/14 11:13:09;;;;;;;;;;;;;;;8.44;90.42;96629.19;5074411;28;20433;-74
2021/11/14 11:15:42;;;;;;;;;;;;;;;8.42;90.87;96626.81;5075627;28;19952;-74
2021/11/14 11:18:10;;;;;;;;;;;;;;;8.42;90.70;96623.38;5075306;28;19961;-74
2021/11/14 11:20:36;;;;;;;;;;;;;;;8.42;91.01;96615.53;5075234;28;19954;-75
2021/11/14 11:23:03;;;;;;;;;;;;;;;8.42;90.41;96618.16;5075010;28;20527;-75
2021/11/14 11:25:35;;;;;;;;;;;;;;;8.41;90.67;96619.97;5075170;28;19949;-74
2021/11/14 11:28:02;;;;;;;;;;;;;;;8.42;90.27;96628.59;5074972;28;19955;-74
2021/11/14 11:30:31;;;;;;;;;;;;;;;8.41;90.66;96625.19;5074457;28;20336;-75
2021/11/14 11:32:57;;;;;;;;;;;;;;;8.48;90.93;96628.63;5074714;28;20316;-75
2021/11/14 11:35:23;;;;;;;;;;;;;;;8.56;91.37;96635.44;5075186;28;19973;-75
2021/11/14 11:37:49;;;;;;;;;;;;;;;8.61;89.85;96634.84;5075037;28;19964;-74
2021/11/14 11:40:15;;;;;;;;;;;;;;;8.63;89.77;96631.06;5074975;28;19960;-75
2021/11/14 11:42:42;;;;;;;;;;;;;;;8.64;89.59;96626.63;5074609;28;20009;-74
2021/11/14 11:45:08;;;;;;;;;;;;;;;8.65;89.81;96629.03;5074553;28;19957;-74
2021/11/14 11:47:35;;;;;;;;;;;;;;;8.70;90.21;96639.69;5074620;28;19961;-75
2021/11/14 11:50:02;;;;;;;;;;;;;;;8.73;87.41;96634.06;5074509;28;19969;-74
2021/11/14 11:52:37;;;;;;;;;;;;;;;8.71;87.58;96632.63;5074428;28;19952;-74
2021/11/14 11:55:15;;;;;;;;;;;;;;;8.65;88.49;96633.44;5074133;28;19958;-74
2021/11/14 11:57:41;;;;;;;;;;;;;;;8.58;87.09;96627.41;5074493;28;19957;-74
2021/11/14 12:00:07;;;;;;;;;;;;;;;8.46;87.30;96629.81;5074206;28;19962;-75
2021/11/14 12:02:33;;;;;;;;;;;;;;;8.36;88.93;96631.97;5074338;28;19975;-74
2021/11/14 12:05:07;;;;;;;;;;;;;;;8.33;88.43;96627.97;5074366;28;20470;-74
2021/11/14 12:07:34;;;;;;;;;;;;;;;8.28;88.32;96631.16;5074045;28;19945;-74
2021/11/14 12:10:09;;;;;;;;;;;;;;;8.19;87.70;96634.97;5073950;28;19979;-75
2021/11/14 12:12:36;;;;;;;;;;;;;;;8.17;88.61;96623.94;5074190;28;19952;-75
2021/11/14 12:15:13;;;;;;;;;;;;;;;8.21;88.77;96625.16;5072942;28;20296;-74
2021/11/14 12:17:40;;;;;;;;;;;;;;;8.23;89.13;96625.75;5064154;28;20415;-74
2021/11/14 12:20:10;;;;;;;;;;;;;;;8.30;89.07;96618.72;5074016;28;19964;-75
2021/11/14 12:22:38;;;;;;;;;;;;;;;8.43;88.80;96615.34;5074046;28;19959;-76
2021/11/14 12:25:04;;;;;;;;;;;;;;;8.64;89.84;96603.88;5073375;28;20400;-74
2021/11/14 12:27:32;;;;;;;;;;;;;;;8.85;89.74;96604.69;5073918;28;20416;-75
2021/11/14 12:30:12;;;;;;;;;;;;;;;8.99;89.16;96600.22;5061858;28;19983;-75
2021/11/14 12:32:43;;;;;;;;;;;;;;;9.03;89.06;96611.91;5073919;28;19953;-75
2021/11/14 12:35:17;;;;;;;;;;;;;;;9.03;88.54;96614.50;5073669;28;19965;-74
2021/11/14 12:38:04;;;;;;;;;;;;;;;8.99;86.49;96613.31;5073391;28;19961;-75
2021/11/14 12:40:32;;;;;;;;;;;;;;;8.97;87.98;96616.16;5073735;28;19951;-75
2021/11/14 12:43:07;;;;;;;;;;;;;;;8.92;87.93;96618.56;5063553;28;20423;-74
2021/11/14 12:45:44;;;;;;;;;;;;;;;8.87;88.52;96620.97;5073479;28;20406;-75
2021/11/14 12:48:10;;;;;;;;;;;;;;;8.84;88.19;96629.22;5073311;28;19956;-75
2021/11/14 12:50:36;;;;;;;;;;;;;;;8.83;88.94;96630.25;5072497;28;20414;-74
2021/11/14 12:53:07;;;;;;;;;;;;;;;8.79;88.53;96629.81;5073372;28;19966;-75
2021/11/14 12:55:33;;;;;;;;;;;;;;;8.76;88.54;96624.19;5073713;28;19976;-74
2021/11/14 12:58:03;;;;;;;;;;;;;;;8.73;88.49;96635.84;5072676;28;21550;-75